Time;durP1;ratioP1;P1;durP2;ratioP2;P2;SDS_P1;SDS_P2;PMS_P1;PMS_P2;Temp;Humidity;BMP_temperature;BMP_pressure;BME280_temperature;BME280_humidity;BME280_pressure;Samples;Min_cycle;Max_cycle;Signal;HPM_P1;HPM_P2
2023/10/04 00:01:45;;;;;;;13.35;1.83;;;13.90;99.90;;;;;;5135994;27;20050;-76
2023/10/04 00:04:11;;;;;;;8.57;1.95;;;14.00;99.90;;;;;;5135725;27;20055;-76
2023/10/04 00:06:38;;;;;;;8.57;2.00;;;13.90;99.90;;;;;;5135118;27;20087;-76
2023/10/04 00:09:04;;;;;;;9.90;2.40;;;13.90;99.90;;;;;;5135593;27;20057;-76
2023/10/04 00:11:31;;;;;;;9.68;2.00;;;13.90;99.90;;;;;;5135698;27;20035;-76
2023/10/04 00:14:00;;;;;;;8.65;1.98;;;13.90;99.90;;;;;;5153319;27;20039;-76
2023/10/04 00:16:26;;;;;;;10.98;2.20;;;13.90;99.90;;;;;;5136073;27;20043;-77
2023/10/04 00:18:54;;;;;;;11.77;2.17;;;13.80;99.90;;;;;;5135237;27;20496;-76
2023/10/04 00:21:20;;;;;;;12.65;2.70;;;13.80;99.90;;;;;;5135132;27;20091;-76
2023/10/04 00:23:45;;;;;;;10.00;2.40;;;13.80;99.90;;;;;;5135997;27;20051;-76
2023/10/04 00:26:11;;;;;;;8.10;1.85;;;13.80;99.90;;;;;;5133920;27;20500;-77
2023/10/04 00:28:40;;;;;;;9.43;2.10;;;13.80;99.90;;;;;;5154506;27;20046;-76
2023/10/04 00:31:06;;;;;;;7.35;2.30;;;13.80;99.90;;;;;;5135410;27;20070;-76
2023/10/04 00:33:32;;;;;;;8.82;2.22;;;13.80;99.90;;;;;;5135399;27;20051;-76
2023/10/04 00:36:04;;;;;;;8.88;2.10;;;13.80;99.90;;;;;;5134996;27;20111;-76
2023/10/04 00:38:31;;;;;;;9.77;2.20;;;13.80;99.90;;;;;;5135813;27;20049;-76
2023/10/04 00:40:56;;;;;;;11.63;2.20;;;13.80;99.90;;;;;;5153271;27;20130;-76
2023/10/04 00:43:23;;;;;;;9.30;2.17;;;13.80;99.90;;;;;;5135562;27;20129;-76
2023/10/04 00:45:49;;;;;;;11.20;2.28;;;13.80;99.90;;;;;;5135197;27;20038;-76
2023/10/04 00:48:23;;;;;;;9.32;2.13;;;13.80;99.90;;;;;;5134962;27;20134;-76
2023/10/04 00:50:49;;;;;;;14.90;2.70;;;13.80;99.90;;;;;;5154029;27;20045;-76
2023/10/04 00:53:21;;;;;;;8.68;2.40;;;13.80;99.90;;;;;;5135784;27;20046;-76
2023/10/04 00:55:49;;;;;;;11.32;2.83;;;13.80;99.90;;;;;;5134459;27;20049;-76
2023/10/04 00:58:19;;;;;;;12.25;2.47;;;13.80;99.90;;;;;;5115004;28;20055;-76
2023/10/04 01:00:47;;;;;;;7.22;2.10;;;13.90;99.90;;;;;;5114762;28;20516;-76
2023/10/04 01:03:14;;;;;;;9.30;2.47;;;13.80;99.90;;;;;;5114103;28;20129;-76
2023/10/04 01:05:46;;;;;;;9.95;2.22;;;13.80;99.90;;;;;;5114978;28;20051;-76
2023/10/04 01:08:14;;;;;;;8.13;2.10;;;13.80;99.90;;;;;;5114913;28;20047;-76
2023/10/04 01:10:40;;;;;;;11.40;2.22;;;13.80;99.90;;;;;;5114816;28;20061;-77
2023/10/04 01:13:09;;;;;;;6.88;2.08;;;13.80;99.90;;;;;;5131526;27;20061;-76
2023/10/04 01:15:36;;;;;;;10.45;1.88;;;13.70;99.90;;;;;;5134143;27;20464;-76
2023/10/04 01:18:11;;;;;;;10.20;2.67;;;13.70;99.90;;;;;;5134990;27;20046;-76
2023/10/04 01:20:39;;;;;;;7.72;2.45;;;13.60;99.90;;;;;;5154091;27;20038;-76
2023/10/04 01:23:06;;;;;;;16.20;2.47;;;13.60;99.90;;;;;;5152889;27;20047;-76
2023/10/04 01:25:36;;;;;;;9.48;2.22;;;13.70;99.90;;;;;;5135507;27;20046;-76
2023/10/04 01:28:14;;;;;;;8.18;2.00;;;13.70;99.90;;;;;;5130955;28;20427;-76
2023/10/04 01:30:40;;;;;;;9.80;2.47;;;13.60;99.90;;;;;;5131089;28;20043;-76
2023/10/04 01:33:15;;;;;;;7.65;2.08;;;13.60;99.90;;;;;;5145346;27;20051;-76
2023/10/04 01:35:42;;;;;;;11.30;2.30;;;13.60;99.90;;;;;;5114941;27;20039;-76
2023/10/04 01:38:08;;;;;;;7.60;1.92;;;13.60;99.90;;;;;;5132534;27;20053;-76
2023/10/04 01:40:39;;;;;;;12.07;2.03;;;13.60;99.90;;;;;;5138760;27;20084;-76
2023/10/04 01:43:16;;;;;;;11.23;2.22;;;13.50;99.90;;;;;;5138093;27;20058;-76
2023/10/04 01:46:00;;;;;;;9.68;2.20;;;13.60;99.90;;;;;;5138100;27;20116;-76
2023/10/04 01:48:27;;;;;;;8.63;2.17;;;13.50;99.90;;;;;;5138551;27;20039;-76
2023/10/04 01:50:53;;;;;;;8.27;2.10;;;13.50;99.90;;;;;;5137496;27;20115;-76
2023/10/04 01:53:25;;;;;;;12.00;2.55;;;13.40;99.90;;;;;;5138522;27;20096;-76
2023/10/04 01:55:52;;;;;;;14.70;2.65;;;13.40;99.90;;;;;;5137426;27;20524;-76
2023/10/04 01:58:23;;;;;;;9.18;2.05;;;13.50;99.90;;;;;;5137305;27;20062;-76
2023/10/04 02:00:50;;;;;;;11.18;2.25;;;13.40;99.90;;;;;;5156230;27;20069;-76
2023/10/04 02:03:16;;;;;;;10.32;2.38;;;13.50;99.90;;;;;;5138309;27;20402;-77
2023/10/04 02:05:42;;;;;;;12.65;2.30;;;13.50;99.90;;;;;;5137903;27;20470;-76
2023/10/04 02:08:12;;;;;;;10.55;2.55;;;13.50;99.90;;;;;;5156375;27;20129;-76
2023/10/04 02:10:41;;;;;;;9.23;1.98;;;13.50;99.90;;;;;;5138409;27;20053;-76
2023/10/04 02:13:08;;;;;;;11.35;2.33;;;13.50;99.90;;;;;;5136722;27;20568;-76
2023/10/04 02:15:34;;;;;;;11.38;2.30;;;13.50;99.90;;;;;;5138198;27;20061;-76
2023/10/04 02:18:01;;;;;;;9.38;2.20;;;13.60;99.90;;;;;;5156288;27;20393;-76
2023/10/04 02:20:31;;;;;;;10.80;2.50;;;13.60;99.90;;;;;;5155772;27;20538;-76
2023/10/04 02:22:59;;;;;;;10.63;2.30;;;13.50;99.90;;;;;;5137562;27;20097;-76
2023/10/04 02:25:25;;;;;;;10.57;2.20;;;13.50;99.90;;;;;;5137411;27;20031;-76
2023/10/04 02:28:06;;;;;;;10.52;2.50;;;13.50;99.90;;;;;;5136257;27;20039;-76
2023/10/04 02:30:31;;;;;;;9.30;2.30;;;13.30;99.90;;;;;;5138094;27;20133;-76
2023/10/04 02:32:57;;;;;;;9.82;2.17;;;13.50;99.90;;;;;;5136660;27;20161;-76
2023/10/04 02:37:54;;;;;;;7.68;2.63;;;13.40;99.90;;;;;;5155942;27;20070;-76
2023/10/04 02:40:22;;;;;;;10.95;2.30;;;13.40;99.90;;;;;;5136785;27;20481;-76
2023/10/04 02:42:49;;;;;;;10.07;2.10;;;13.40;99.90;;;;;;5155701;27;20038;-76
2023/10/04 02:45:21;;;;;;;13.48;2.50;;;13.40;99.90;;;;;;5137110;27;20043;-76
2023/10/04 02:47:51;;;;;;;13.30;2.40;;;13.40;99.90;;;;;;5135405;27;20050;-76
2023/10/04 02:50:18;;;;;;;11.68;2.78;;;13.40;99.90;;;;;;5137792;27;20516;-76
2023/10/04 02:52:50;;;;;;;9.98;2.15;;;13.40;99.90;;;;;;5137667;27;20062;-76
2023/10/04 02:55:17;;;;;;;7.57;2.15;;;13.50;99.90;;;;;;5136315;27;20035;-76
2023/10/04 02:57:49;;;;;;;10.63;2.25;;;13.50;99.90;;;;;;5137587;27;20047;-76
2023/10/04 03:00:17;;;;;;;12.68;2.72;;;13.50;99.90;;;;;;5136701;27;20054;-76
2023/10/04 03:02:50;;;;;;;7.88;2.75;;;13.40;99.90;;;;;;5134004;27;20138;-76
2023/10/04 03:05:20;;;;;;;12.73;2.53;;;13.50;99.90;;;;;;5136402;27;20043;-76
2023/10/04 03:07:53;;;;;;;12.50;2.20;;;13.50;99.90;;;;;;5136554;27;20057;-76
2023/10/04 03:10:25;;;;;;;12.02;2.70;;;13.40;99.90;;;;;;5137239;27;20046;-76
2023/10/04 03:12:56;;;;;;;15.02;2.97;;;13.40;99.90;;;;;;5136615;27;20057;-76
2023/10/04 03:15:23;;;;;;;10.65;2.63;;;13.30;99.90;;;;;;5154727;27;20078;-76
2023/10/04 03:17:53;;;;;;;13.93;3.15;;;13.30;99.90;;;;;;5136788;27;20091;-76
2023/10/04 03:20:23;;;;;;;14.70;3.47;;;13.40;99.90;;;;;;5136412;27;20042;-76
2023/10/04 03:22:51;;;;;;;11.95;4.20;;;13.40;99.90;;;;;;5154197;27;20542;-76
2023/10/04 03:25:17;;;;;;;16.23;4.10;;;13.40;99.90;;;;;;5136515;27;20087;-76
2023/10/04 03:27:44;;;;;;;11.32;3.63;;;13.50;99.90;;;;;;5136987;27;20103;-76
2023/10/04 03:30:14;;;;;;;11.73;2.70;;;13.50;99.90;;;;;;5135570;27;20046;-76
2023/10/04 03:32:50;;;;;;;10.52;3.05;;;13.50;99.90;;;;;;5136848;27;20046;-76
2023/10/04 03:35:21;;;;;;;12.27;2.92;;;13.50;99.90;;;;;;5136148;27;20046;-76
2023/10/04 03:37:58;;;;;;;10.93;2.50;;;13.50;99.90;;;;;;5135726;27;20431;-76
2023/10/04 03:40:24;;;;;;;12.63;2.85;;;13.40;99.90;;;;;;5136415;27;20047;-76
2023/10/04 03:42:50;;;;;;;12.75;2.83;;;13.40;99.90;;;;;;5135483;27;20501;-76
2023/10/04 03:45:20;;;;;;;13.55;2.70;;;13.40;99.90;;;;;;5135805;27;20043;-76
2023/10/04 03:47:50;;;;;;;15.40;3.10;;;13.40;99.90;;;;;;5136521;27;20365;-76
2023/10/04 03:50:19;;;;;;;8.95;2.40;;;13.30;99.90;;;;;;5135375;27;20050;-76
2023/10/04 03:52:47;;;;;;;13.77;2.72;;;13.30;99.90;;;;;;5154660;27;20493;-76
2023/10/04 03:55:13;;;;;;;10.05;2.45;;;13.30;99.90;;;;;;5136464;27;20039;-76
2023/10/04 03:57:42;;;;;;;11.85;2.58;;;13.30;99.90;;;;;;5153939;27;20494;-76
2023/10/04 04:00:13;;;;;;;11.40;2.30;;;13.30;99.90;;;;;;5131214;27;20134;-76
2023/10/04 04:02:39;;;;;;;11.65;2.38;;;13.30;99.90;;;;;;5132284;27;20123;-76
2023/10/04 04:05:09;;;;;;;12.73;2.22;;;13.20;99.90;;;;;;5131689;27;20486;-76
2023/10/04 04:07:35;;;;;;;12.77;2.50;;;13.20;99.90;;;;;;5132062;27;20062;-76
2023/10/04 04:10:05;;;;;;;13.52;2.95;;;13.20;99.90;;;;;;5117223;27;20039;-76
2023/10/04 04:12:31;;;;;;;10.93;2.70;;;13.20;99.90;;;;;;5132085;27;20062;-76
2023/10/04 04:14:57;;;;;;;9.65;2.30;;;13.10;99.90;;;;;;5131906;27;20046;-75
2023/10/04 04:17:22;;;;;;;11.38;2.58;;;13.10;99.90;;;;;;5131627;27;20051;-77
2023/10/04 04:19:52;;;;;;;11.35;2.60;;;13.10;99.90;;;;;;5131671;27;20040;-75
2023/10/04 04:22:23;;;;;;;16.55;2.47;;;13.10;99.90;;;;;;5132089;27;20406;-75
2023/10/04 04:24:50;;;;;;;7.65;2.50;;;13.20;99.90;;;;;;5131497;28;20047;-76
2023/10/04 04:27:22;;;;;;;10.40;2.50;;;13.20;99.90;;;;;;5131330;28;20055;-75
2023/10/04 04:29:52;;;;;;;10.02;2.40;;;13.20;99.90;;;;;;5133084;28;20043;-75
2023/10/04 04:32:26;;;;;;;12.85;2.60;;;13.20;99.90;;;;;;5132057;28;20089;-75
2023/10/04 04:34:56;;;;;;;10.60;2.85;;;13.20;99.90;;;;;;5131614;28;20065;-76
2023/10/04 04:37:29;;;;;;;12.25;2.28;;;13.20;99.90;;;;;;5131708;28;20039;-75
2023/10/04 04:39:54;;;;;;;10.75;2.67;;;13.20;99.90;;;;;;5130074;28;20047;-74
2023/10/04 04:42:35;;;;;;;10.25;2.70;;;13.20;99.90;;;;;;5129285;28;20696;-75
2023/10/04 04:45:02;;;;;;;10.13;2.45;;;13.20;99.90;;;;;;5131467;28;20039;-71
2023/10/04 04:47:28;;;;;;;13.07;3.22;;;13.20;99.90;;;;;;5130651;28;20088;-69
2023/10/04 04:49:59;;;;;;;11.45;2.90;;;13.20;99.90;;;;;;5131388;28;20043;-77
2023/10/04 04:52:25;;;;;;;14.13;2.78;;;13.20;99.90;;;;;;5132038;28;20066;-73
2023/10/04 04:54:50;;;;;;;11.32;2.55;;;13.20;99.90;;;;;;5117896;28;20398;-71
2023/10/04 04:57:16;;;;;;;13.55;3.20;;;13.20;99.90;;;;;;5112013;28;20114;-77
2023/10/04 04:59:43;;;;;;;8.00;3.05;;;13.20;99.90;;;;;;5125778;28;20047;-75
2023/10/04 05:02:08;;;;;;;11.68;2.75;;;13.10;99.90;;;;;;5131075;28;20039;-73
2023/10/04 05:04:34;;;;;;;11.80;2.72;;;13.10;99.90;;;;;;5132207;28;20039;-77
2023/10/04 05:06:59;;;;;;;7.95;2.72;;;13.10;99.90;;;;;;5131298;28;20051;-79
2023/10/04 05:09:28;;;;;;;9.57;2.65;;;13.10;99.90;;;;;;5131301;28;20039;-79
2023/10/04 05:11:53;;;;;;;15.50;2.92;;;13.10;99.90;;;;;;5133295;27;20039;-75
2023/10/04 05:14:20;;;;;;;11.80;3.00;;;13.10;99.90;;;;;;5135437;27;20046;-72
2023/10/04 05:16:45;;;;;;;14.35;3.17;;;13.10;99.90;;;;;;5135214;27;20110;-76
2023/10/04 05:19:13;;;;;;;11.50;3.22;;;13.10;99.90;;;;;;5135210;27;20160;-75
2023/10/04 05:21:38;;;;;;;14.18;3.08;;;13.10;99.90;;;;;;5134384;27;20039;-78
2023/10/04 05:24:05;;;;;;;11.73;2.80;;;13.00;99.90;;;;;;5134890;27;20214;-81
2023/10/04 05:26:32;;;;;;;9.88;3.22;;;13.00;99.90;;;;;;5135493;27;20046;-84
2023/10/04 05:29:00;;;;;;;14.23;2.97;;;13.00;99.90;;;;;;5134372;27;20425;-74
2023/10/04 05:31:25;;;;;;;12.55;3.28;;;13.00;99.90;;;;;;5135255;27;20471;-77
2023/10/04 05:33:51;;;;;;;12.43;2.85;;;13.00;99.90;;;;;;5134915;27;20099;-82
2023/10/04 05:36:17;;;;;;;8.35;3.30;;;12.90;99.90;;;;;;5134061;27;20043;-86
2023/10/04 05:38:43;;;;;;;13.60;2.95;;;12.90;99.90;;;;;;5134812;27;20051;-71
2023/10/04 05:41:09;;;;;;;10.70;3.63;;;12.90;99.90;;;;;;5133591;27;20154;-74
2023/10/04 05:43:35;;;;;;;10.13;3.30;;;12.90;99.90;;;;;;5130290;27;20376;-75
2023/10/04 05:46:00;;;;;;;13.20;3.17;;;12.90;99.90;;;;;;5122964;27;20084;-75
2023/10/04 05:48:26;;;;;;;10.35;2.53;;;13.00;99.90;;;;;;5115864;28;20031;-74
2023/10/04 05:50:54;;;;;;;16.13;3.42;;;12.90;99.90;;;;;;5111689;27;20036;-75
2023/10/04 05:53:21;;;;;;;10.63;3.15;;;12.80;99.90;;;;;;5112478;27;20050;-74
2023/10/04 05:55:48;;;;;;;11.95;3.33;;;12.80;99.90;;;;;;5111015;27;20471;-75
2023/10/04 05:58:14;;;;;;;10.07;3.00;;;12.80;99.90;;;;;;5111763;27;20722;-75
2023/10/04 06:00:40;;;;;;;11.27;3.20;;;12.80;99.90;;;;;;5114110;27;20064;-75
2023/10/04 06:03:15;;;;;;;12.70;3.80;;;12.80;99.90;;;;;;5112282;27;20051;-74
2023/10/04 06:05:42;;;;;;;10.73;3.65;;;12.80;99.90;;;;;;5113638;27;20035;-74
2023/10/04 06:08:18;;;;;;;15.32;3.70;;;12.80;99.90;;;;;;5115296;27;20063;-75
2023/10/04 06:10:46;;;;;;;11.40;3.17;;;12.80;99.90;;;;;;5113298;27;20036;-75
2023/10/04 06:13:12;;;;;;;9.45;2.72;;;12.80;99.90;;;;;;5114203;27;20039;-74
2023/10/04 06:15:46;;;;;;;15.60;4.00;;;12.80;99.90;;;;;;5114311;27;20046;-74
2023/10/04 06:18:12;;;;;;;11.57;3.80;;;12.80;99.90;;;;;;5124587;27;20047;-75
2023/10/04 06:20:40;;;;;;;11.85;3.88;;;12.80;99.90;;;;;;5134189;27;20042;-75
2023/10/04 06:23:09;;;;;;;10.68;3.28;;;12.90;99.90;;;;;;5132570;27;20062;-75
2023/10/04 06:25:45;;;;;;;11.73;2.83;;;12.90;99.90;;;;;;5121979;27;20042;-75
2023/10/04 06:28:12;;;;;;;8.23;3.05;;;12.90;99.90;;;;;;5113734;27;20070;-75
2023/10/04 06:30:42;;;;;;;10.27;3.08;;;13.00;99.90;;;;;;5115837;27;20043;-75
2023/10/04 06:33:09;;;;;;;11.35;3.15;;;13.00;99.90;;;;;;5113099;27;20051;-75
2023/10/04 06:35:37;;;;;;;11.57;3.53;;;13.10;99.90;;;;;;5113748;27;20040;-75
2023/10/04 06:38:08;;;;;;;11.32;3.45;;;13.10;99.90;;;;;;5113055;27;20047;-75
2023/10/04 06:40:35;;;;;;;10.60;3.30;;;13.10;99.90;;;;;;5113012;27;20051;-75
2023/10/04 06:43:14;;;;;;;10.88;3.70;;;13.20;99.90;;;;;;5117129;27;20047;-75
2023/10/04 06:45:40;;;;;;;10.55;3.47;;;13.20;99.90;;;;;;5113587;27;20043;-75
2023/10/04 06:48:06;;;;;;;9.07;3.15;;;13.30;99.90;;;;;;5112658;27;20538;-76
2023/10/04 06:50:38;;;;;;;14.00;4.00;;;13.30;99.90;;;;;;5113672;27;20039;-76
2023/10/04 06:53:04;;;;;;;11.77;3.10;;;13.40;99.90;;;;;;5112177;27;20067;-75
2023/10/04 06:55:34;;;;;;;15.35;3.63;;;13.50;99.90;;;;;;5113103;27;20130;-75
2023/10/04 06:58:00;;;;;;;8.48;3.22;;;13.60;99.90;;;;;;5112830;27;20052;-75
2023/10/04 07:00:35;;;;;;;9.75;3.45;;;13.60;99.90;;;;;;5123674;27;20047;-75
2023/10/04 07:03:02;;;;;;;13.27;3.85;;;13.70;99.90;;;;;;5116257;27;20460;-75
2023/10/04 07:05:32;;;;;;;10.38;3.70;;;13.80;99.90;;;;;;5116463;27;20047;-74
2023/10/04 07:07:58;;;;;;;9.95;3.05;;;14.00;99.90;;;;;;5115491;27;20062;-74
2023/10/04 07:10:26;;;;;;;11.93;3.22;;;14.10;99.90;;;;;;5116437;27;20402;-74
2023/10/04 07:12:52;;;;;;;14.55;3.60;;;14.20;99.90;;;;;;5122682;27;20440;-75
2023/10/04 07:15:19;;;;;;;13.32;3.20;;;14.20;99.90;;;;;;5116093;27;20085;-75
2023/10/04 07:17:47;;;;;;;17.70;3.05;;;14.40;99.90;;;;;;5117130;27;20054;-75
2023/10/04 07:20:17;;;;;;;8.18;2.83;;;14.40;99.90;;;;;;5115934;27;20043;-75
2023/10/04 07:22:45;;;;;;;10.00;3.10;;;14.60;99.90;;;;;;5115480;27;20039;-75
2023/10/04 07:25:15;;;;;;;14.70;3.30;;;14.70;99.90;;;;;;5115829;27;20071;-75
2023/10/04 07:27:43;;;;;;;12.45;3.55;;;14.80;99.90;;;;;;5115804;27;20524;-75
2023/10/04 07:30:19;;;;;;;10.18;3.42;;;14.90;99.90;;;;;;5118365;27;20394;-75
2023/10/04 07:32:46;;;;;;;14.33;3.17;;;15.00;99.90;;;;;;5116298;27;20057;-75
2023/10/04 07:35:19;;;;;;;10.27;3.15;;;15.20;99.90;;;;;;5115234;27;20478;-75
2023/10/04 07:37:45;;;;;;;10.95;3.20;;;15.40;99.90;;;;;;5116022;27;20055;-75
2023/10/04 07:40:18;;;;;;;11.25;3.35;;;15.90;99.90;;;;;;5134046;27;20101;-76
2023/10/04 07:42:45;;;;;;;13.48;3.40;;;16.70;99.90;;;;;;5115217;27;20460;-75
2023/10/04 07:45:12;;;;;;;10.77;3.42;;;17.30;99.90;;;;;;5115415;27;20080;-75
2023/10/04 07:47:45;;;;;;;11.68;3.58;;;17.70;99.90;;;;;;5133945;27;20482;-75
2023/10/04 07:50:14;;;;;;;13.23;3.50;;;18.00;99.90;;;;;;5114941;27;20058;-75
2023/10/04 07:52:42;;;;;;;13.05;3.95;;;18.20;99.90;;;;;;5115639;27;20053;-75
2023/10/04 07:55:18;;;;;;;15.65;4.10;;;18.20;99.90;;;;;;5115136;27;20479;-75
2023/10/04 07:57:48;;;;;;;11.88;3.70;;;18.30;99.90;;;;;;5133400;27;20078;-76
2023/10/04 08:00:15;;;;;;;12.90;3.70;;;18.50;99.90;;;;;;5120051;27;20059;-75
2023/10/04 08:02:51;;;;;;;11.52;3.35;;;18.30;99.90;;;;;;5135925;27;20190;-75
2023/10/04 08:05:26;;;;;;;11.73;3.33;;;18.00;99.90;;;;;;5135389;27;20450;-76
2023/10/04 08:07:57;;;;;;;11.20;2.90;;;17.80;99.90;;;;;;5115119;27;20047;-77
2023/10/04 08:10:29;;;;;;;11.35;3.35;;;18.00;99.90;;;;;;5114796;27;20054;-77
2023/10/04 08:13:00;;;;;;;13.82;3.63;;;18.20;99.90;;;;;;5115183;27;20135;-77
2023/10/04 08:15:28;;;;;;;11.02;3.45;;;18.70;99.90;;;;;;5120751;27;20042;-77
2023/10/04 08:17:58;;;;;;;11.07;3.13;;;19.50;99.90;;;;;;5134105;27;20074;-77
2023/10/04 08:20:29;;;;;;;10.35;3.30;;;20.30;99.90;;;;;;5136047;27;20039;-76
2023/10/04 08:22:58;;;;;;;13.43;3.83;;;21.00;99.90;;;;;;5135360;27;20506;-75
2023/10/04 08:25:25;;;;;;;12.23;3.40;;;21.80;99.90;;;;;;5135263;27;20034;-74
2023/10/04 08:27:50;;;;;;;10.85;3.28;;;22.30;99.90;;;;;;5153568;27;20119;-77
2023/10/04 08:30:18;;;;;;;12.35;3.47;;;22.40;99.90;;;;;;5136165;27;20051;-75
2023/10/04 08:32:51;;;;;;;8.50;3.53;;;22.50;99.90;;;;;;5135467;27;20521;-75
2023/10/04 08:35:33;;;;;;;12.93;3.72;;;22.60;99.50;;;;;;5154410;27;20091;-75
2023/10/04 08:38:00;;;;;;;12.65;3.60;;;22.10;99.90;;;;;;5153561;27;20035;-74
2023/10/04 08:40:27;;;;;;;10.88;3.05;;;22.00;99.90;;;;;;5153360;27;20043;-75
2023/10/04 08:42:53;;;;;;;8.23;3.33;;;21.90;99.80;;;;;;5135163;27;20521;-75
2023/10/04 08:45:24;;;;;;;8.70;3.38;;;22.50;99.10;;;;;;5135507;27;20130;-75
2023/10/04 08:47:52;;;;;;;10.38;3.53;;;22.80;98.60;;;;;;5139013;27;20473;-75
2023/10/04 08:50:31;;;;;;;9.38;3.67;;;23.40;98.90;;;;;;5139536;27;20390;-75
2023/10/04 08:53:26;;;;;;;10.77;3.50;;;23.70;97.20;;;;;;5137731;27;20054;-78
2023/10/04 08:55:59;;;;;;;8.23;2.97;;;23.70;97.30;;;;;;5131888;27;20398;-77
2023/10/04 08:58:26;;;;;;;10.57;3.97;;;23.40;97.40;;;;;;5118911;27;20039;-73
2023/10/04 09:00:51;;;;;;;9.73;3.70;;;23.40;97.40;;;;;;5117781;27;20047;-73
2023/10/04 09:03:22;;;;;;;9.73;3.55;;;23.60;96.70;;;;;;5132993;27;20053;-74
2023/10/04 09:05:52;;;;;;;11.20;3.58;;;23.70;96.60;;;;;;5138929;27;20532;-74
2023/10/04 09:08:17;;;;;;;12.10;3.67;;;24.00;97.60;;;;;;5138814;27;20039;-74
2023/10/04 09:10:46;;;;;;;11.50;3.88;;;24.30;96.50;;;;;;5139155;27;20045;-74
2023/10/04 09:13:12;;;;;;;10.35;3.63;;;24.60;96.20;;;;;;5138847;27;20046;-74
2023/10/04 09:15:38;;;;;;;11.82;3.92;;;24.60;96.50;;;;;;5138758;27;20148;-74
2023/10/04 09:18:04;;;;;;;9.15;3.95;;;24.50;96.00;;;;;;5138721;27;20078;-75
2023/10/04 09:20:32;;;;;;;12.23;4.18;;;24.30;96.10;;;;;;5138817;27;20097;-76
2023/10/04 09:22:59;;;;;;;10.98;3.95;;;23.70;96.30;;;;;;5137963;27;20145;-76
2023/10/04 09:25:46;;;;;;;10.85;3.80;;;23.10;96.80;;;;;;5157421;27;20474;-75
2023/10/04 09:28:12;;;;;;;10.80;3.70;;;23.10;97.30;;;;;;5138325;27;20379;-74
2023/10/04 09:30:38;;;;;;;10.02;3.45;;;22.70;97.30;;;;;;5157695;27;20474;-75
2023/10/04 09:33:09;;;;;;;11.18;4.10;;;22.10;97.40;;;;;;5159053;27;20043;-76
2023/10/04 09:35:44;;;;;;;11.38;4.10;;;21.60;98.30;;;;;;5138359;27;20137;-74
2023/10/04 09:38:25;;;;;;;12.35;4.00;;;21.40;99.10;;;;;;5138403;27;20066;-74
2023/10/04 09:40:56;;;;;;;12.88;4.55;;;20.80;99.20;;;;;;5157133;27;20047;-75
2023/10/04 09:43:35;;;;;;;13.27;4.45;;;20.20;99.90;;;;;;5138125;27;20042;-73
2023/10/04 09:46:00;;;;;;;12.55;3.75;;;19.90;99.90;;;;;;5138317;27;20042;-73
2023/10/04 09:48:33;;;;;;;12.32;3.63;;;19.60;99.90;;;;;;5137969;27;20054;-74
2023/10/04 09:51:01;;;;;;;14.23;3.90;;;19.40;99.90;;;;;;5137348;27;20401;-73
2023/10/04 09:53:28;;;;;;;16.15;4.35;;;19.20;99.90;;;;;;5138085;27;20053;-72
2023/10/04 09:55:59;;;;;;;11.45;3.75;;;19.00;99.90;;;;;;5136800;27;20458;-76
2023/10/04 09:58:30;;;;;;;11.38;3.50;;;18.90;99.90;;;;;;5136602;27;20047;-78
2023/10/04 10:01:11;;;;;;;13.13;4.07;;;18.60;99.90;;;;;;5137815;27;20089;-78
2023/10/04 10:04:08;;;;;;;11.40;3.13;;;18.40;99.90;;;;;;5136691;27;20051;-78
2023/10/04 10:06:53;;;;;;;11.88;3.65;;;18.30;99.90;;;;;;5138206;27;20047;-78
2023/10/04 10:09:22;;;;;;;11.45;3.97;;;18.30;99.90;;;;;;5137951;27;20042;-76
2023/10/04 10:11:52;;;;;;;14.32;4.18;;;18.20;99.90;;;;;;5155018;27;20100;-76
2023/10/04 10:14:22;;;;;;;11.02;3.78;;;18.30;99.90;;;;;;5138355;27;20043;-76
2023/10/04 10:16:54;;;;;;;17.25;3.92;;;18.40;99.90;;;;;;5137516;27;20047;-76
2023/10/04 10:19:22;;;;;;;7.28;3.28;;;18.60;99.90;;;;;;5138153;27;20048;-76
2023/10/04 10:22:18;;;;;;;12.63;3.40;;;19.10;99.90;;;;;;5137668;27;20128;-77
2023/10/04 10:24:48;;;;;;;11.52;3.83;;;19.50;99.90;;;;;;5101015;27;20066;-77
2023/10/04 10:27:18;;;;;;;8.82;3.28;;;19.30;99.90;;;;;;5117287;27;20043;-76
2023/10/04 10:29:46;;;;;;;10.07;2.72;;;18.90;99.90;;;;;;5117054;27;20505;-80
2023/10/04 10:32:17;;;;;;;11.75;4.03;;;19.00;99.90;;;;;;5116819;27;20067;-80
2023/10/04 10:34:44;;;;;;;11.90;3.72;;;18.80;99.90;;;;;;5117134;27;20474;-79
2023/10/04 10:37:15;;;;;;;9.90;3.42;;;19.10;99.90;;;;;;5116514;27;20159;-79
2023/10/04 10:39:50;;;;;;;12.25;3.70;;;19.20;99.90;;;;;;5117039;27;20039;-84
2023/10/04 10:42:16;;;;;;;9.77;3.50;;;19.20;99.90;;;;;;5117020;27;20031;-82
2023/10/04 10:44:43;;;;;;;11.68;3.65;;;19.00;99.90;;;;;;5117036;27;20138;-82
2023/10/04 10:47:19;;;;;;;11.55;4.57;;;19.00;99.90;;;;;;5134853;27;20035;-83
2023/10/04 10:49:55;;;;;;;11.23;4.13;;;18.90;99.90;;;;;;5117538;27;20047;-80
2023/10/04 10:52:46;;;;;;;10.48;3.47;;;18.90;99.90;;;;;;5122687;27;20387;-78
2023/10/04 10:55:17;;;;;;;10.05;3.35;;;18.90;99.90;;;;;;5137243;27;20486;-77
2023/10/04 10:57:45;;;;;;;13.38;3.40;;;18.60;99.90;;;;;;5155644;27;20038;-77
2023/10/04 11:00:13;;;;;;;8.63;3.40;;;18.40;99.90;;;;;;5135387;27;20055;-78
2023/10/04 11:02:40;;;;;;;12.73;3.33;;;18.30;99.90;;;;;;5134249;27;20428;-77
2023/10/04 11:05:06;;;;;;;9.82;3.22;;;18.20;99.90;;;;;;5136379;27;20413;-78
2023/10/04 11:07:32;;;;;;;9.95;3.55;;;18.30;99.90;;;;;;5135575;27;20042;-78
2023/10/04 11:09:59;;;;;;;9.93;2.70;;;18.20;99.90;;;;;;5136219;27;20043;-77
2023/10/04 11:12:25;;;;;;;11.57;3.15;;;18.20;99.90;;;;;;5136767;27;20039;-78
2023/10/04 11:14:52;;;;;;;14.40;3.40;;;18.10;99.90;;;;;;5136073;27;20513;-78
2023/10/04 11:17:20;;;;;;;8.93;2.55;;;18.20;99.90;;;;;;5137069;27;20035;-74
2023/10/04 11:19:46;;;;;;;9.45;2.80;;;18.40;99.90;;;;;;5135695;27;20129;-74
2023/10/04 11:22:14;;;;;;;11.77;3.20;;;18.50;99.90;;;;;;5135810;27;20458;-75
2023/10/04 11:24:40;;;;;;;10.32;2.88;;;18.50;99.90;;;;;;5136505;27;20046;-78
2023/10/04 11:27:08;;;;;;;7.93;2.55;;;18.50;99.90;;;;;;5136111;27;20050;-77
2023/10/04 11:29:35;;;;;;;11.40;2.55;;;18.50;99.90;;;;;;5132087;27;20071;-78
2023/10/04 11:32:01;;;;;;;8.90;2.70;;;18.40;99.90;;;;;;5147694;27;20034;-78
2023/10/04 11:34:27;;;;;;;11.13;3.00;;;18.30;99.90;;;;;;5153923;27;20043;-77
2023/10/04 11:37:02;;;;;;;10.90;3.10;;;18.30;99.90;;;;;;5136090;27;20122;-74
2023/10/04 11:39:33;;;;;;;8.50;2.35;;;18.10;99.90;;;;;;5135916;27;20042;-76
2023/10/04 11:42:01;;;;;;;13.48;3.17;;;17.90;99.90;;;;;;5135437;27;20121;-75
2023/10/04 11:44:28;;;;;;;8.15;2.28;;;17.90;99.90;;;;;;5136234;27;20043;-75
2023/10/04 11:46:55;;;;;;;10.93;2.30;;;17.90;99.90;;;;;;5139382;27;20038;-74
2023/10/04 11:49:28;;;;;;;8.80;2.17;;;17.90;99.90;;;;;;5153729;27;20181;-77
2023/10/04 11:51:59;;;;;;;12.02;2.33;;;17.80;99.90;;;;;;5154409;27;20509;-76
2023/10/04 11:54:44;;;;;;;7.55;2.33;;;17.70;99.90;;;;;;5131494;27;20402;-76
2023/10/04 11:57:11;;;;;;;8.18;2.65;;;17.80;99.90;;;;;;5129138;27;20393;-75
2023/10/04 11:59:39;;;;;;;7.80;2.58;;;17.90;99.90;;;;;;5135053;27;20065;-76
2023/10/04 12:02:06;;;;;;;9.00;2.38;;;18.00;99.90;;;;;;5134641;27;20038;-77
2023/10/04 12:04:32;;;;;;;9.70;2.40;;;18.00;99.90;;;;;;5135196;27;20046;-76
2023/10/04 12:07:04;;;;;;;11.55;2.92;;;18.00;99.90;;;;;;5135704;27;20043;-76
2023/10/04 12:09:36;;;;;;;9.38;2.53;;;18.10;99.90;;;;;;5135118;27;20120;-75
2023/10/04 12:12:05;;;;;;;8.57;2.30;;;18.20;99.90;;;;;;5134213;27;20035;-78
2023/10/04 12:14:34;;;;;;;7.00;2.60;;;18.10;99.90;;;;;;5152063;27;20074;-77
2023/10/04 12:17:04;;;;;;;7.68;2.10;;;18.00;99.90;;;;;;5133218;27;20042;-75
2023/10/04 12:19:34;;;;;;;7.85;2.08;;;18.00;99.90;;;;;;5133807;27;20050;-77
2023/10/04 12:22:02;;;;;;;10.32;2.42;;;18.10;99.90;;;;;;5150706;27;20039;-76
2023/10/04 12:24:32;;;;;;;5.57;2.50;;;18.10;99.90;;;;;;5132968;27;20125;-79
2023/10/04 12:27:08;;;;;;;10.20;2.30;;;18.30;99.90;;;;;;5151874;27;20428;-81
2023/10/04 12:29:36;;;;;;;9.10;2.10;;;18.40;99.90;;;;;;5135590;27;20493;-80
2023/10/04 12:32:02;;;;;;;11.13;2.60;;;18.50;99.90;;;;;;5134336;27;20058;-80
2023/10/04 12:34:29;;;;;;;5.93;2.10;;;18.60;99.90;;;;;;5135492;27;20540;-78
2023/10/04 12:36:55;;;;;;;7.95;2.15;;;18.80;99.90;;;;;;5153535;27;20091;-80
2023/10/04 12:39:22;;;;;;;7.65;2.50;;;18.70;99.90;;;;;;5135008;27;20148;-78
2023/10/04 12:41:50;;;;;;;8.23;2.38;;;18.50;99.90;;;;;;5153637;27;20035;-75
2023/10/04 12:44:19;;;;;;;6.93;2.05;;;18.40;99.90;;;;;;5135669;27;20050;-78
2023/10/04 12:46:47;;;;;;;11.70;2.42;;;18.30;99.90;;;;;;5153422;27;20049;-77
2023/10/04 12:49:13;;;;;;;10.57;2.47;;;18.20;99.90;;;;;;5153917;27;20222;-76
2023/10/04 12:51:39;;;;;;;9.45;2.58;;;18.30;99.90;;;;;;5152272;27;20043;-78
2023/10/04 12:54:09;;;;;;;11.05;2.92;;;18.20;99.90;;;;;;5153730;27;20371;-76